Track Девтеров Владимир

Time Latitude Longitude Accuracy (66% radius in meters) Altitude (meters) Speed (km/hour) Bearing (degrees) Battery (%) GPS flag
05:38:01 57.150611 39.348880 1.5 103 0 0 21 1 delete
05:37:31 57.150611 39.348880 1.5 103 0 0 21 1 delete
05:37:01 57.150611 39.348880 1.5 103 0 0 21 1 delete
05:36:31 57.150611 39.348880 2 103 0 0 21 1 delete
05:36:01 57.150611 39.348880 2 103 0 0 21 1 delete
05:35:26 57.150585 39.348880 2.5 100.90000152588 0 0 21 1 delete
05:34:56 57.150585 39.348880 5 100.90000152588 0 0 21 1 delete
05:34:26 57.150585 39.348880 7 100.90000152588 0 0 21 1 delete
05:33:56 57.150585 39.348880 7.5 100.90000152588 0 0 21 1 delete
05:23:26 57.150614 39.348825 5.5 103 0 0 23 1 delete
05:22:59 57.150639 39.348790 9 103.09999847412 0.0099999997764826 271.79077148438 23 1 delete
05:12:57 57.150546 39.348258 6.5 101.19999694824 0 0 23 1 delete
05:12:52 57.150532 39.348285 7 98.300003051758 0.40999999642372 359.20349121094 23 1 delete
05:12:42 57.150424 39.348343 12 87.199996948242 0 0 23 1 delete
05:12:31 57.150607 39.348413 16.5 115.5 0.83999997377396 332.0068359375 23 1 delete
05:02:23 57.150509 39.348206 7 105.30000305176 0 0 24 1 delete
05:01:57 57.150526 39.348161 16 114 0.25999999046326 130.39672851562 24 1 delete
04:51:49 57.150537 39.348384 15 103 0 0 24 1 delete
04:51:34 57.150549 39.348393 17.5 106.5 0 0 24 1 delete
04:51:28 57.150440 39.347988 16 107.90000152588 0.20999999344349 16.770629882812 24 1 delete
04:41:19 57.150515 39.348231 7.5 109.30000305176 0 0 26 1 delete
04:41:04 57.150515 39.348231 12 109.30000305176 0 0 26 1 delete
04:40:59 57.150703 39.348175 11.5 55.400001525879 0.55000001192093 204.72473144531 26 1 delete
04:30:48 57.150517 39.348224 7.5 87.099998474121 0 0 26 1 delete
04:30:32 57.150514 39.348308 15 84.199996948242 0.37999999523163 284.35363769531 26 1 delete
04:30:27 57.150696 39.348510 9.5 123.69999694824 0.43999999761581 289.95666503906 26 1 delete
04:20:15 57.150555 39.347999 11 103 0.26999998092651 216.96899414062 26 1 delete
04:20:00 57.150537 39.348065 11 113.80000305176 0 0 26 1 delete
04:19:54 57.150658 39.348249 9.5 121.30000305176 0.9099999666214 231.08093261719 26 1 delete
04:09:47 57.150490 39.348189 5.5 97.699996948242 0 0 28 1 delete
04:09:32 57.150490 39.348189 8.5 97.699996948242 0 0 28 1 delete
04:09:21 57.150541 39.348045 12 110.40000152588 0.78999996185303 165.08605957031 28 1 delete
03:59:15 57.150465 39.348256 6.5 105.80000305176 0 0 28 1 delete
03:59:00 57.150424 39.348347 15.5 98.099998474121 0 0 28 1 delete
03:58:54 57.150440 39.348133 12 109.09999847412 1.5499999523163 208.64685058594 28 1 delete
03:58:49 57.150813 39.348180 12 69 0.70999997854233 239.94140625 28 1 delete
03:48:42 57.150422 39.348201 5.5 88.199996948242 0 0 28 1 delete
03:48:26 57.150496 39.348208 14.5 105.40000152588 0.10999999940395 3.1146240234375 28 1 delete
03:38:11 57.150537 39.348125 8 113.19999694824 0 0 28 1 delete
03:37:51 57.150610 39.348136 12.5 122.30000305176 0.1799999922514 137.63122558594 28 1 delete
03:37:45 57.150679 39.348402 21.5 133.19999694824 0.56000000238419 315.91186523438 28 1 delete
03:27:36 57.150563 39.348173 8 109.5 0 0 30 1 delete
03:27:21 57.150598 39.348168 16.5 110.19999694824 0.10999999940395 2.8399658203125 30 1 delete
03:27:15 57.150474 39.348148 18 92.400001525879 0.17000000178814 135.93383789062 30 1 delete
03:17:08 57.150559 39.348260 7.5 99.900001525879 0 0 30 1 delete
03:17:03 57.150558 39.348261 7.5 99.900001525879 0.070000000298023 148.34838867188 30 1 delete
03:16:48 57.150671 39.348340 13 110.19999694824 0 0 30 1 delete
03:16:42 57.150560 39.348714 18.5 145.39999389648 0.31999999284744 351.4306640625 30 1 delete
03:06:35 57.150722 39.345990 2.5 112.40000152588 3.4399998188019 122.68981933594 31 1 delete
03:06:30 57.150813 39.345732 2 110.90000152588 3.3299999237061 122.53601074219 31 1 delete